Time;durP1;ratioP1;P1;durP2;ratioP2;P2;SDS_P1;SDS_P2;PMS_P1;PMS_P2;Temp;Humidity;BMP_temperature;BMP_pressure;BME280_temperature;BME280_humidity;BME280_pressure;Samples;Min_cycle;Max_cycle;Signal;HPM_P1;HPM_P2
2021/12/03 00:00:09;;;;;;;0.10;0.00;;;7.60;28.90;;;;;;5009856;28;20411;-78
2021/12/03 00:02:36;;;;;;;;;;;7.60;29.10;;;;;;5026573;28;20500;-81
2021/12/03 00:05:03;;;;;;;0.13;0.00;;;7.60;29.20;;;;;;5013029;28;20385;-81
2021/12/03 00:07:40;;;;;;;;;;;7.60;28.90;;;;;;5005366;28;20053;-79
2021/12/03 00:10:07;;;;;;;;;;;7.50;29.40;;;;;;5005105;28;19925;-79
2021/12/03 00:12:35;;;;;;;0.47;0.10;;;7.40;29.50;;;;;;5007656;28;19945;-78
2021/12/03 00:15:04;;;;;;;0.13;0.03;;;7.50;29.70;;;;;;4995075;28;20050;-81
2021/12/03 00:17:31;;;;;;;0.20;0.10;;;7.40;29.30;;;;;;5012785;28;20058;-79
2021/12/03 00:19:58;;;;;;;;;;;7.40;29.60;;;;;;5014484;28;20046;-78
2021/12/03 00:22:25;;;;;;;0.60;0.00;;;7.40;29.30;;;;;;5005261;28;19922;-79
2021/12/03 00:24:52;;;;;;;0.20;0.10;;;7.30;29.80;;;;;;5006068;28;20050;-78
2021/12/03 00:27:19;;;;;;;0.10;0.00;;;7.30;29.50;;;;;;5011411;28;20414;-79
2021/12/03 00:29:46;;;;;;;0.10;0.00;;;7.30;29.80;;;;;;5008104;28;20832;-77
2021/12/03 00:32:13;;;;;;;1.30;0.00;;;7.30;29.90;;;;;;4997203;28;20042;-79
2021/12/03 00:34:40;;;;;;;0.30;0.10;;;7.30;29.80;;;;;;5012745;28;20046;-79
2021/12/03 00:37:07;;;;;;;0.55;0.05;;;7.20;29.90;;;;;;5016009;28;20062;-81
2021/12/03 00:39:34;;;;;;;1.25;0.05;;;7.20;29.90;;;;;;5015017;28;20068;-78
2021/12/03 00:42:03;;;;;;;0.52;0.00;;;7.20;30.10;;;;;;5018142;28;20069;-78
2021/12/03 00:44:30;;;;;;;;;;;7.20;29.80;;;;;;5017254;28;20470;-81
2021/12/03 00:46:59;;;;;;;0.10;0.10;;;7.20;29.60;;;;;;5019013;28;19925;-79
2021/12/03 00:49:26;;;;;;;0.68;0.00;;;7.10;29.50;;;;;;5026222;28;20092;-79
2021/12/03 00:51:53;;;;;;;0.10;0.10;;;7.10;30.00;;;;;;5017264;28;20046;-80
2021/12/03 00:54:21;;;;;;;0.40;0.00;;;7.10;30.00;;;;;;5019760;28;20050;-79
2021/12/03 00:56:48;;;;;;;0.20;0.00;;;7.10;29.80;;;;;;5007742;28;20109;-81
2021/12/03 00:59:15;;;;;;;0.60;0.03;;;7.10;30.10;;;;;;5016621;28;20092;-78
2021/12/03 01:01:42;;;;;;;0.13;0.10;;;7.10;30.10;;;;;;5017161;28;20099;-79
2021/12/03 01:04:09;;;;;;;0.63;0.03;;;7.00;30.00;;;;;;5017630;28;20042;-79
2021/12/03 01:06:36;;;;;;;0.13;0.00;;;7.00;30.00;;;;;;5017339;28;20064;-78
2021/12/03 01:09:03;;;;;;;;;;;7.00;30.40;;;;;;5016706;28;20050;-78
2021/12/03 01:11:31;;;;;;;0.10;0.00;;;7.00;30.60;;;;;;5017147;28;20388;-79
2021/12/03 01:14:00;;;;;;;1.38;0.10;;;7.00;30.10;;;;;;5017185;28;20076;-78
2021/12/03 01:16:29;;;;;;;1.05;0.00;;;6.90;30.50;;;;;;5015658;28;20053;-80
2021/12/03 01:18:58;;;;;;;0.60;0.00;;;6.90;31.00;;;;;;5015062;28;20427;-80
2021/12/03 01:21:26;;;;;;;0.00;0.00;;;6.80;31.10;;;;;;5014457;28;20496;-77
2021/12/03 01:23:54;;;;;;;0.05;0.00;;;6.80;31.10;;;;;;5011621;28;20138;-80
2021/12/03 01:26:22;;;;;;;0.10;0.08;;;6.80;30.80;;;;;;5015848;28;20042;-79
2021/12/03 01:28:50;;;;;;;0.22;0.10;;;6.80;31.10;;;;;;5016614;28;20532;-79
2021/12/03 01:31:18;;;;;;;0.88;0.10;;;6.70;31.70;;;;;;5014582;28;20053;-80
2021/12/03 01:33:47;;;;;;;0.20;0.03;;;6.60;32.00;;;;;;5005917;28;20076;-80
2021/12/03 01:36:15;;;;;;;0.10;0.00;;;6.60;31.70;;;;;;5015573;28;20042;-80
2021/12/03 01:38:42;;;;;;;;;;;6.50;32.20;;;;;;5006734;28;20059;-79
2021/12/03 01:41:09;;;;;;;2.08;0.10;;;6.50;31.00;;;;;;5014319;28;19921;-80
2021/12/03 01:43:37;;;;;;;0.85;0.20;;;6.60;31.20;;;;;;5015536;28;20064;-80
2021/12/03 01:46:11;;;;;;;0.20;0.10;;;6.60;31.40;;;;;;5015021;28;20097;-78
2021/12/03 01:48:40;;;;;;;0.55;0.10;;;6.50;32.00;;;;;;5015037;28;20050;-80
2021/12/03 01:51:07;;;;;;;;;;;6.60;31.40;;;;;;5016807;28;20053;-81
2021/12/03 01:53:36;;;;;;;0.03;0.00;;;6.60;30.80;;;;;;5002016;28;20293;-81
2021/12/03 01:56:09;;;;;;;0.00;0.00;;;6.60;31.10;;;;;;5014050;28;20050;-78
2021/12/03 01:58:36;;;;;;;0.52;0.10;;;6.60;31.10;;;;;;5015744;28;20050;-78
2021/12/03 02:01:11;;;;;;;0.03;0.00;;;6.60;31.10;;;;;;5017672;28;20042;-79
2021/12/03 02:03:41;;;;;;;0.28;0.00;;;6.60;30.80;;;;;;5014794;28;20042;-81
2021/12/03 02:06:11;;;;;;;1.55;0.10;;;6.70;30.60;;;;;;5015327;28;20092;-78
2021/12/03 02:08:38;;;;;;;0.20;0.10;;;6.70;31.70;;;;;;5012768;28;20062;-79
2021/12/03 02:11:07;;;;;;;0.10;0.00;;;6.70;31.00;;;;;;5016650;28;20042;-80
2021/12/03 02:13:35;;;;;;;1.45;0.10;;;6.70;30.40;;;;;;5016641;28;20073;-78
2021/12/03 02:16:04;;;;;;;0.20;0.00;;;6.70;30.50;;;;;;5016224;28;20473;-81
2021/12/03 02:18:31;;;;;;;0.50;0.05;;;6.70;30.70;;;;;;5014876;28;20049;-81
2021/12/03 02:21:02;;;;;;;1.00;0.00;;;6.70;30.60;;;;;;5017434;28;20049;-79
2021/12/03 02:23:29;;;;;;;1.30;0.05;;;6.70;30.80;;;;;;5014267;28;20506;-79
2021/12/03 02:25:56;;;;;;;0.00;0.00;;;6.70;30.80;;;;;;5016031;28;20553;-78
2021/12/03 02:28:26;;;;;;;0.10;0.00;;;6.60;30.70;;;;;;5015156;28;20100;-78
2021/12/03 02:30:55;;;;;;;0.38;0.38;;;6.60;30.70;;;;;;5014705;28;20433;-78
2021/12/03 02:33:22;;;;;;;0.98;0.05;;;6.70;30.60;;;;;;5009258;28;20081;-79
2021/12/03 02:35:50;;;;;;;0.95;0.10;;;6.70;30.50;;;;;;5015562;28;20046;-79
2021/12/03 02:38:20;;;;;;;0.00;0.00;;;6.60;31.10;;;;;;5016059;28;20042;-79
2021/12/03 02:40:50;;;;;;;0.13;0.00;;;6.60;31.10;;;;;;5014751;28;20080;-80
2021/12/03 02:43:18;;;;;;;0.10;0.10;;;6.60;31.60;;;;;;5014831;28;20046;-78
2021/12/03 02:45:45;;;;;;;0.00;0.00;;;6.60;30.90;;;;;;5014634;28;20569;-78
2021/12/03 02:48:12;;;;;;;0.00;0.00;;;6.60;31.20;;;;;;5012713;28;20053;-81
2021/12/03 02:50:39;;;;;;;0.00;0.00;;;6.50;31.40;;;;;;5017667;28;20046;-79
2021/12/03 02:53:06;;;;;;;0.70;0.00;;;6.50;31.30;;;;;;5015245;28;20049;-78
2021/12/03 02:55:33;;;;;;;0.20;0.00;;;6.50;31.70;;;;;;5014401;28;20116;-80
2021/12/03 02:58:01;;;;;;;0.00;0.00;;;6.50;31.80;;;;;;5005694;28;20046;-78
2021/12/03 03:00:29;;;;;;;0.00;0.00;;;6.40;31.50;;;;;;5013606;28;20096;-78
2021/12/03 03:02:57;;;;;;;1.38;0.10;;;6.40;32.30;;;;;;5014146;28;20073;-80
2021/12/03 03:05:27;;;;;;;0.20;0.00;;;6.40;32.50;;;;;;5011403;28;20129;-81
2021/12/03 03:07:55;;;;;;;0.32;0.10;;;6.40;33.00;;;;;;5013682;28;20069;-80
2021/12/03 03:10:28;;;;;;;0.10;0.00;;;6.30;32.40;;;;;;5014375;28;20046;-78
2021/12/03 03:12:57;;;;;;;0.35;0.10;;;6.30;32.70;;;;;;5014041;28;20525;-81
2021/12/03 03:15:24;;;;;;;0.50;0.10;;;6.20;32.50;;;;;;5013859;28;20073;-78
2021/12/03 03:17:51;;;;;;;0.93;0.05;;;6.20;32.90;;;;;;5013405;28;20056;-81
2021/12/03 03:20:19;;;;;;;0.00;0.00;;;6.20;32.60;;;;;;5013156;28;20414;-79
2021/12/03 03:22:47;;;;;;;0.00;0.00;;;6.10;32.30;;;;;;5009903;28;20039;-80
2021/12/03 03:25:18;;;;;;;0.00;0.00;;;6.10;32.50;;;;;;5024145;28;20491;-79
2021/12/03 03:27:46;;;;;;;0.28;0.00;;;6.10;32.50;;;;;;5011751;28;20050;-78
2021/12/03 03:30:15;;;;;;;0.10;0.10;;;6.00;32.60;;;;;;5013716;28;20052;-79
2021/12/03 03:32:43;;;;;;;0.10;0.10;;;6.00;32.60;;;;;;5012244;28;20053;-78
2021/12/03 03:35:11;;;;;;;0.25;0.00;;;5.90;32.80;;;;;;5013612;28;20041;-80
2021/12/03 03:37:39;;;;;;;0.30;0.10;;;6.00;32.40;;;;;;5013722;28;20057;-79
2021/12/03 03:40:09;;;;;;;0.20;0.00;;;6.00;32.50;;;;;;5013925;28;20498;-78
2021/12/03 03:42:36;;;;;;;0.55;0.10;;;5.90;32.80;;;;;;5013884;28;20092;-78
2021/12/03 03:45:08;;;;;;;0.40;0.10;;;5.90;33.20;;;;;;5013639;28;20050;-79
2021/12/03 03:47:37;;;;;;;0.40;0.10;;;5.90;33.20;;;;;;5014136;28;20428;-79
2021/12/03 03:50:06;;;;;;;0.20;0.17;;;5.80;33.00;;;;;;5014614;28;20049;-79
2021/12/03 03:52:35;;;;;;;0.05;0.00;;;5.90;32.90;;;;;;5015422;28;20049;-80
2021/12/03 03:55:03;;;;;;;1.45;0.10;;;5.90;32.80;;;;;;5011696;28;20114;-78
2021/12/03 03:57:30;;;;;;;0.10;0.00;;;5.90;32.40;;;;;;5013622;28;20053;-78
2021/12/03 03:59:57;;;;;;;0.35;0.20;;;5.90;32.50;;;;;;5013339;28;20513;-80
2021/12/03 04:02:24;;;;;;;0.38;0.00;;;5.90;32.80;;;;;;5005614;28;20046;-81
2021/12/03 04:04:51;;;;;;;0.00;0.00;;;5.90;32.60;;;;;;5012786;28;20414;-81
2021/12/03 04:07:18;;;;;;;0.17;0.10;;;5.90;32.30;;;;;;5012937;28;20073;-79
2021/12/03 04:09:45;;;;;;;0.00;0.00;;;5.80;32.70;;;;;;5012266;28;20061;-80
2021/12/03 04:12:12;;;;;;;0.57;0.10;;;5.90;32.40;;;;;;5012281;28;20045;-78
2021/12/03 04:14:39;;;;;;;0.32;0.05;;;5.90;32.50;;;;;;5012544;28;20046;-80
2021/12/03 04:17:06;;;;;;;0.10;0.10;;;5.80;33.70;;;;;;5012514;28;20517;-78
2021/12/03 04:19:33;;;;;;;0.22;0.10;;;5.80;32.30;;;;;;5012996;28;20518;-78
2021/12/03 04:22:00;;;;;;;4.00;0.20;;;5.80;32.90;;;;;;5012714;28;20399;-79
2021/12/03 04:24:27;;;;;;;0.47;0.10;;;5.80;32.60;;;;;;5002861;28;20042;-77
2021/12/03 04:26:54;;;;;;;0.08;0.08;;;5.70;32.80;;;;;;5011658;28;20042;-78
2021/12/03 04:29:21;;;;;;;4.22;0.10;;;5.80;32.70;;;;;;5003159;28;20050;-80
2021/12/03 04:31:48;;;;;;;0.00;0.00;;;5.80;32.40;;;;;;5012649;28;20064;-78
2021/12/03 04:34:15;;;;;;;0.08;0.03;;;5.70;33.10;;;;;;5011063;28;20046;-80
2021/12/03 04:36:42;;;;;;;0.10;0.10;;;5.70;32.70;;;;;;5008846;28;20552;-80
2021/12/03 04:39:09;;;;;;;0.35;0.10;;;5.70;32.50;;;;;;5007590;28;20418;-78
2021/12/03 04:41:36;;;;;;;0.50;0.00;;;5.70;32.90;;;;;;5013436;28;20057;-78
2021/12/03 04:44:03;;;;;;;0.57;0.10;;;5.70;33.20;;;;;;5012667;28;20090;-79
2021/12/03 04:46:30;;;;;;;0.25;0.10;;;5.70;32.90;;;;;;5012541;28;20042;-79
2021/12/03 04:48:57;;;;;;;0.60;0.10;;;5.60;32.70;;;;;;5012346;28;20479;-80
2021/12/03 04:51:24;;;;;;;0.10;0.10;;;5.60;32.60;;;;;;5007917;28;20501;-79
2021/12/03 04:53:51;;;;;;;1.20;0.00;;;5.60;33.00;;;;;;5009196;28;20050;-79
2021/12/03 04:56:18;;;;;;;0.15;0.08;;;5.60;33.00;;;;;;5012946;28;20053;-78
2021/12/03 04:58:45;;;;;;;1.08;0.20;;;5.60;33.20;;;;;;5008097;28;20046;-78
2021/12/03 05:01:12;;;;;;;0.30;0.00;;;5.60;32.70;;;;;;5012273;28;20049;-78
2021/12/03 05:03:40;;;;;;;0.63;0.10;;;5.60;32.90;;;;;;5012999;28;20057;-79
2021/12/03 05:06:09;;;;;;;0.13;0.00;;;5.60;32.70;;;;;;5013115;28;20042;-80
2021/12/03 05:08:36;;;;;;;0.28;0.10;;;5.60;33.00;;;;;;5008620;28;20131;-80
2021/12/03 05:11:03;;;;;;;1.05;0.10;;;5.60;33.10;;;;;;5036127;28;20042;-78
2021/12/03 05:13:33;;;;;;;0.10;0.10;;;5.50;33.30;;;;;;5013226;28;20038;-79
2021/12/03 05:16:01;;;;;;;0.30;0.15;;;5.50;32.80;;;;;;5012369;28;20041;-80
2021/12/03 05:18:29;;;;;;;0.10;0.10;;;5.50;33.20;;;;;;5012619;28;20058;-80
2021/12/03 05:21:00;;;;;;;1.17;0.10;;;5.50;33.10;;;;;;5009463;28;20116;-79
2021/12/03 05:23:29;;;;;;;0.20;0.10;;;5.50;33.10;;;;;;5010385;28;20387;-78
2021/12/03 05:25:56;;;;;;;0.30;0.10;;;5.40;33.30;;;;;;5016667;28;20042;-78
2021/12/03 05:28:24;;;;;;;0.20;0.10;;;5.50;33.60;;;;;;5016236;28;20042;-80
2021/12/03 05:30:52;;;;;;;0.20;0.10;;;5.40;33.60;;;;;;5016041;28;20133;-79
2021/12/03 05:33:20;;;;;;;0.20;0.10;;;5.40;34.00;;;;;;5011105;28;20054;-80
2021/12/03 05:35:48;;;;;;;0.10;0.10;;;5.40;33.40;;;;;;5014913;28;20046;-80
2021/12/03 05:38:15;;;;;;;0.28;0.10;;;5.40;33.20;;;;;;5013380;28;20052;-80
2021/12/03 05:40:42;;;;;;;0.22;0.20;;;5.40;33.50;;;;;;5016226;28;20053;-78
2021/12/03 05:43:12;;;;;;;0.30;0.10;;;5.40;33.40;;;;;;5016437;28;20541;-78
2021/12/03 05:45:39;;;;;;;0.10;0.10;;;5.40;33.40;;;;;;5015611;28;20057;-79
2021/12/03 05:48:06;;;;;;;0.30;0.10;;;5.30;33.60;;;;;;5016245;28;20049;-81
2021/12/03 05:50:34;;;;;;;0.10;0.10;;;5.30;34.80;;;;;;5049982;28;20061;-78
2021/12/03 05:53:01;;;;;;;0.00;0.00;;;5.20;34.00;;;;;;5023985;28;20048;-80
2021/12/03 05:55:28;;;;;;;0.40;0.10;;;5.20;33.70;;;;;;5016701;28;20061;-80
2021/12/03 05:57:56;;;;;;;0.38;0.10;;;5.20;33.50;;;;;;5018585;28;20054;-79
2021/12/03 06:00:41;;;;;;;0.20;0.10;;;5.20;33.50;;;;;;5016803;28;20061;-79
2021/12/03 06:03:09;;;;;;;0.35;0.10;;;5.20;33.70;;;;;;5023024;28;20050;-78
2021/12/03 06:05:36;;;;;;;1.17;0.30;;;5.20;33.80;;;;;;5020140;28;20512;-78
2021/12/03 06:08:04;;;;;;;0.17;0.10;;;5.20;33.30;;;;;;5015460;28;20062;-79
2021/12/03 06:10:31;;;;;;;0.95;0.10;;;5.20;33.30;;;;;;5017469;28;20046;-78
2021/12/03 06:12:58;;;;;;;0.10;0.10;;;5.20;33.60;;;;;;5048333;28;20065;-79
2021/12/03 06:15:25;;;;;;;0.10;0.10;;;5.20;33.70;;;;;;5021134;28;20045;-80
2021/12/03 06:17:53;;;;;;;0.73;0.20;;;5.20;33.70;;;;;;5021023;28;20054;-78
2021/12/03 06:20:20;;;;;;;0.50;0.10;;;5.10;33.60;;;;;;5016263;28;20060;-79
2021/12/03 06:22:48;;;;;;;0.28;0.20;;;5.20;33.20;;;;;;5017879;28;20057;-77
2021/12/03 06:25:18;;;;;;;0.30;0.10;;;5.20;33.50;;;;;;5018687;28;20049;-79
2021/12/03 06:27:45;;;;;;;0.10;0.10;;;5.20;33.90;;;;;;5019304;28;20042;-80
2021/12/03 06:30:19;;;;;;;0.45;0.15;;;5.10;33.90;;;;;;5016688;28;20042;-78
2021/12/03 06:32:46;;;;;;;0.32;0.10;;;5.20;33.90;;;;;;5025436;28;20046;-79
2021/12/03 06:35:15;;;;;;;0.40;0.10;;;5.10;33.70;;;;;;5017302;28;20046;-79
2021/12/03 06:37:42;;;;;;;2.70;0.13;;;5.10;34.00;;;;;;5011577;28;20086;-78
2021/12/03 06:40:13;;;;;;;1.35;0.20;;;5.10;34.30;;;;;;5014520;28;20054;-77
2021/12/03 06:42:41;;;;;;;0.28;0.10;;;5.00;34.20;;;;;;5015942;28;20061;-79
2021/12/03 06:45:10;;;;;;;0.50;0.10;;;5.00;33.70;;;;;;5026562;28;20049;-80
2021/12/03 06:47:37;;;;;;;0.77;0.10;;;5.00;34.00;;;;;;5028375;28;20046;-80
2021/12/03 06:50:08;;;;;;;0.80;0.25;;;5.00;34.30;;;;;;5009724;28;20042;-80
2021/12/03 06:52:38;;;;;;;0.20;0.10;;;5.10;33.70;;;;;;5017886;28;20054;-78
2021/12/03 06:55:09;;;;;;;0.88;0.25;;;5.10;33.90;;;;;;5003852;28;20050;-78
2021/12/03 06:57:36;;;;;;;0.75;0.20;;;5.10;34.10;;;;;;5016670;28;20046;-78
2021/12/03 07:00:05;;;;;;;0.40;0.10;;;5.00;34.30;;;;;;5016295;28;20116;-79
2021/12/03 07:02:32;;;;;;;2.15;0.30;;;5.00;34.50;;;;;;5020711;28;20042;-80
2021/12/03 07:05:00;;;;;;;0.30;0.20;;;5.00;35.30;;;;;;5012855;28;20096;-80
2021/12/03 07:07:27;;;;;;;0.55;0.20;;;5.00;34.00;;;;;;5013262;28;20510;-79
2021/12/03 07:09:57;;;;;;;0.93;0.17;;;5.10;33.50;;;;;;5013826;28;20113;-78
2021/12/03 07:12:24;;;;;;;3.05;0.50;;;5.10;33.90;;;;;;5011691;28;20045;-79
2021/12/03 07:14:51;;;;;;;1.65;0.40;;;5.10;33.80;;;;;;5015466;28;20490;-79
2021/12/03 07:17:18;;;;;;;4.07;0.40;;;5.10;33.90;;;;;;5014361;28;20540;-79
2021/12/03 07:19:45;;;;;;;0.70;0.25;;;5.00;33.90;;;;;;5023952;28;20065;-79
2021/12/03 07:22:12;;;;;;;1.35;0.30;;;5.00;34.20;;;;;;5016725;28;20042;-78
2021/12/03 07:24:40;;;;;;;1.08;0.40;;;5.10;33.20;;;;;;5017289;28;20502;-78
2021/12/03 07:27:08;;;;;;;0.75;0.20;;;5.10;33.60;;;;;;5038173;28;20045;-79
2021/12/03 07:29:36;;;;;;;0.70;0.30;;;5.20;32.90;;;;;;5024320;28;20046;-80
2021/12/03 07:32:04;;;;;;;1.35;0.40;;;5.20;33.30;;;;;;5018371;28;20579;-79
2021/12/03 07:34:32;;;;;;;0.63;0.30;;;5.30;33.60;;;;;;5043719;28;20383;-79
2021/12/03 07:36:59;;;;;;;3.30;0.30;;;5.40;33.20;;;;;;5034629;28;20053;-79
2021/12/03 07:39:26;;;;;;;0.80;0.35;;;5.70;32.80;;;;;;5017058;28;20052;-79
2021/12/03 07:41:53;;;;;;;1.65;0.30;;;6.30;32.00;;;;;;5028117;28;20058;-80
2021/12/03 07:44:20;;;;;;;0.38;0.20;;;6.60;31.50;;;;;;5028440;28;20107;-79
2021/12/03 07:46:47;;;;;;;2.28;0.20;;;6.80;30.90;;;;;;5028097;28;20042;-78
2021/12/03 07:49:14;;;;;;;0.93;0.30;;;6.70;31.00;;;;;;5016902;28;20041;-80
2021/12/03 07:51:41;;;;;;;1.00;0.30;;;6.60;31.60;;;;;;5012130;28;20046;-79
2021/12/03 07:54:08;;;;;;;1.15;0.40;;;6.40;31.60;;;;;;5012602;28;20136;-78
2021/12/03 07:56:35;;;;;;;0.73;0.22;;;6.30;31.70;;;;;;5012710;28;20465;-79
2021/12/03 07:59:04;;;;;;;1.38;0.70;;;6.30;32.00;;;;;;5016540;28;20559;-78
2021/12/03 08:01:33;;;;;;;0.80;0.20;;;6.30;32.50;;;;;;5011085;28;20058;-79
2021/12/03 08:04:00;;;;;;;0.47;0.20;;;6.30;32.70;;;;;;5018272;28;20041;-79
2021/12/03 08:06:27;;;;;;;0.30;0.20;;;6.30;32.50;;;;;;5023811;28;20061;-80
2021/12/03 08:08:54;;;;;;;1.67;0.20;;;6.30;33.30;;;;;;5017000;28;20493;-79
2021/12/03 08:11:21;;;;;;;4.03;1.15;;;6.40;31.60;;;;;;5007798;28;20387;-80
2021/12/03 08:13:48;;;;;;;1.63;0.30;;;6.40;32.30;;;;;;5017326;28;20410;-79
2021/12/03 08:16:15;;;;;;;0.85;0.40;;;6.50;32.10;;;;;;5016308;28;20046;-78
2021/12/03 08:18:42;;;;;;;2.58;0.88;;;6.50;31.70;;;;;;5010439;28;20049;-78
2021/12/03 08:21:09;;;;;;;2.17;0.50;;;6.50;32.10;;;;;;5003457;28;20062;-79
2021/12/03 08:23:36;;;;;;;0.52;0.30;;;6.60;32.10;;;;;;5012640;28;20050;-79
2021/12/03 08:26:03;;;;;;;0.22;0.20;;;6.60;32.00;;;;;;5022112;28;20107;-79
2021/12/03 08:28:32;;;;;;;0.40;0.20;;;6.70;31.90;;;;;;5018756;28;20068;-79
2021/12/03 08:30:59;;;;;;;0.40;0.20;;;6.70;31.40;;;;;;5016104;28;20096;-80
2021/12/03 08:33:27;;;;;;;2.80;0.50;;;6.70;32.30;;;;;;5019107;28;20097;-78
2021/12/03 08:35:54;;;;;;;0.60;0.30;;;6.80;31.60;;;;;;5043498;28;20049;-78
2021/12/03 08:38:21;;;;;;;1.10;0.38;;;6.80;31.30;;;;;;5014480;28;20052;-78
2021/12/03 08:41:07;;;;;;;0.55;0.40;;;6.80;31.00;;;;;;5022170;28;20100;-79
2021/12/03 08:43:34;;;;;;;1.45;0.40;;;6.80;31.30;;;;;;5027146;28;20473;-78
2021/12/03 08:46:10;;;;;;;2.05;0.40;;;6.90;31.60;;;;;;5025448;28;20132;-79
2021/12/03 08:48:39;;;;;;;2.10;0.30;;;6.90;31.00;;;;;;5011488;28;20050;-78
2021/12/03 08:51:33;;;;;;;2.53;0.35;;;6.90;31.10;;;;;;5018104;28;20077;-78
2021/12/03 08:56:39;;;;;;;0.73;0.30;;;7.00;31.00;;;;;;5021006;28;20050;-80
2021/12/03 08:59:06;;;;;;;;;;;7.00;30.50;;;;;;5009747;28;20458;-78
2021/12/03 09:01:33;;;;;;;;;;;7.00;30.10;;;;;;5032282;28;19929;-79
2021/12/03 09:04:00;;;;;;;;;;;7.10;30.10;;;;;;5031861;28;19921;-80
2021/12/03 09:06:28;;;;;;;;;;;7.20;30.20;;;;;;5018559;28;20378;-79
2021/12/03 09:08:54;;;;;;;;;;;7.20;29.90;;;;;;5026937;28;19940;-79
2021/12/03 09:11:23;;;;;;;1.48;0.50;;;7.20;30.00;;;;;;5051131;28;19925;-79
2021/12/03 09:13:51;;;;;;;2.65;0.93;;;7.20;30.00;;;;;;5020189;28;20104;-78
2021/12/03 09:16:20;;;;;;;1.48;0.40;;;7.20;30.10;;;;;;5021998;28;20076;-78
2021/12/03 09:18:50;;;;;;;0.98;0.40;;;7.30;30.20;;;;;;5016116;28;20499;-77
2021/12/03 09:21:32;;;;;;;1.80;0.38;;;7.30;30.30;;;;;;5017856;28;20400;-80
2021/12/03 09:26:28;;;;;;;2.08;0.43;;;7.50;29.20;;;;;;5049048;28;20442;-78
2021/12/03 09:29:05;;;;;;;0.98;0.22;;;7.60;29.40;;;;;;5015913;28;20423;-78
2021/12/03 09:31:35;;;;;;;0.70;0.30;;;7.70;28.70;;;;;;5021620;28;20450;-80
2021/12/03 09:34:08;;;;;;;0.88;0.40;;;7.80;29.20;;;;;;5019790;28;20403;-77
2021/12/03 09:36:36;;;;;;;1.52;0.40;;;7.80;29.10;;;;;;5015795;28;20869;-78
2021/12/03 09:39:05;;;;;;;1.08;0.20;;;7.90;29.10;;;;;;5024085;28;20427;-79
2021/12/03 09:41:32;;;;;;;1.10;0.30;;;7.90;28.70;;;;;;5013567;28;20405;-80
2021/12/03 09:43:59;;;;;;;0.73;0.30;;;7.90;29.40;;;;;;5012885;28;20408;-79
2021/12/03 09:46:26;;;;;;;;;;;8.00;29.20;;;;;;5017941;28;20417;-80
2021/12/03 09:49:20;;;;;;;0.77;0.30;;;8.00;29.50;;;;;;5019309;28;19952;-79
2021/12/03 09:52:09;;;;;;;1.00;0.28;;;8.10;29.10;;;;;;5030991;28;20085;-78
2021/12/03 09:54:41;;;;;;;3.13;0.50;;;8.20;27.80;;;;;;5025948;28;20398;-80
2021/12/03 09:57:16;;;;;;;0.70;0.25;;;8.20;28.70;;;;;;5016655;28;20398;-79
2021/12/03 10:09:26;;;;;;;0.52;0.30;;;8.30;28.60;;;;;;5023299;28;20066;-80
2021/12/03 10:21:52;;;;;;;1.20;0.22;;;8.80;27.80;;;;;;5022559;28;20401;-78
2021/12/03 10:29:48;;;;;;;0.60;0.30;;;9.00;27.00;;;;;;5015076;28;20428;-77
2021/12/03 10:46:53;;;;;;;;;;;9.30;26.90;;;;;;5018345;28;20485;-79
2021/12/03 11:55:59;;;;;;;;;;;11.60;24.40;;;;;;5015620;28;20303;-80
2021/12/03 13:18:32;;;;;;;;;;;13.40;25.90;;;;;;5016254;28;20424;-78
2021/12/03 13:27:06;;;;;;;;;;;13.30;25.40;;;;;;5016020;28;19992;-79
2021/12/03 14:05:35;;;;;;;;;;;11.80;28.30;;;;;;4996818;28;19926;-78
2021/12/03 14:44:52;;;;;;;;;;;10.90;30.10;;;;;;5010903;28;19922;-81
2021/12/03 14:55:35;;;;;;;1.65;0.82;;;10.70;30.60;;;;;;5021915;28;20001;-78
2021/12/03 14:58:14;;;;;;;2.10;1.10;;;10.70;30.70;;;;;;5030823;28;20050;-80
2021/12/03 15:03:26;;;;;;;2.50;1.20;;;10.70;31.20;;;;;;5024689;28;20062;-81
2021/12/03 15:08:42;;;;;;;2.67;1.20;;;10.80;32.10;;;;;;5026506;28;20057;-78
2021/12/03 15:32:18;;;;;;;4.00;1.63;;;9.90;33.60;;;;;;5004749;28;20429;-79
2021/12/03 15:35:01;;;;;;;3.55;1.33;;;9.80;33.50;;;;;;5016344;28;20453;-81
2021/12/03 15:56:34;;;;;;;7.47;4.55;;;8.30;41.30;;;;;;5004211;28;20161;-79
2021/12/03 16:04:39;;;;;;;;;;;7.80;42.60;;;;;;5008771;28;19972;-79
2021/12/03 16:20:34;;;;;;;;;;;6.80;46.90;;;;;;5008544;28;19932;-80
2021/12/03 16:45:37;;;;;;;;;;;5.90;47.50;;;;;;4996396;28;19968;-80
2021/12/03 16:53:08;;;;;;;;;;;5.60;49.00;;;;;;5012456;28;20412;-81
2021/12/03 16:55:34;;;;;;;;;;;5.50;49.90;;;;;;5016106;28;19905;-79
2021/12/03 16:58:01;;;;;;;;;;;5.50;50.10;;;;;;5011981;28;20374;-81
2021/12/03 17:00:38;;;;;;;;;;;5.40;50.20;;;;;;5018266;28;20291;-78
2021/12/03 17:03:21;;;;;;;;;;;5.20;49.90;;;;;;5025922;28;19921;-78
2021/12/03 17:19:46;;;;;;;;;;;4.60;47.60;;;;;;5003946;28;19933;-78
2021/12/03 17:29:59;;;;;;;;;;;4.40;51.70;;;;;;5016851;28;19925;-77
2021/12/03 17:56:54;;;;;;;;;;;4.20;47.50;;;;;;5018412;28;19945;-79
2021/12/03 17:59:33;;;;;;;;;;;4.20;51.40;;;;;;5017634;28;19921;-80
2021/12/03 18:02:09;;;;;;;;;;;4.10;51.50;;;;;;5002374;28;19921;-78
2021/12/03 18:10:09;;;;;;;;;;;3.90;52.90;;;;;;5010741;28;19929;-79
2021/12/03 18:51:35;;;;;;;;;;;2.80;57.10;;;;;;5014651;28;19980;-78
2021/12/03 18:56:53;;;;;;;;;;;2.60;58.10;;;;;;5005112;28;20414;-78
2021/12/03 18:59:20;;;;;;;;;;;2.50;58.30;;;;;;5009342;28;20341;-78
2021/12/03 19:01:48;;;;;;;;;;;2.50;58.90;;;;;;5007141;28;19925;-79
2021/12/03 19:04:21;;;;;;;;;;;2.50;58.80;;;;;;4997635;28;19957;-79
2021/12/03 19:07:05;;;;;;;18.30;9.80;;;2.40;58.40;;;;;;5011161;28;19929;-78
2021/12/03 19:09:36;;;;;;;17.63;9.70;;;2.40;59.30;;;;;;5010303;28;20126;-78
2021/12/03 19:12:28;;;;;;;16.80;11.18;;;2.30;59.50;;;;;;4997234;28;20042;-79
2021/12/03 19:15:00;;;;;;;19.80;10.90;;;2.30;59.70;;;;;;4998653;28;20043;-78
2021/12/03 19:17:35;;;;;;;15.43;9.48;;;2.30;59.40;;;;;;5015442;28;20046;-80
2021/12/03 19:20:11;;;;;;;15.93;8.48;;;2.30;58.30;;;;;;4997967;28;20042;-80
2021/12/03 19:22:38;;;;;;;15.02;7.75;;;2.10;59.20;;;;;;4992483;28;20109;-80
2021/12/03 19:25:09;;;;;;;17.70;8.00;;;2.00;58.70;;;;;;5016194;28;20495;-78
2021/12/03 19:27:38;;;;;;;10.90;6.57;;;1.90;58.50;;;;;;5004506;28;20136;-80
2021/12/03 19:30:06;;;;;;;11.27;7.03;;;1.90;58.50;;;;;;4985428;28;20388;-80
2021/12/03 19:32:33;;;;;;;12.70;7.68;;;2.00;58.10;;;;;;4999556;28;20046;-80
2021/12/03 19:35:01;;;;;;;11.65;7.55;;;2.00;57.20;;;;;;5004792;28;20041;-78
2021/12/03 19:37:29;;;;;;;13.63;7.38;;;2.10;55.60;;;;;;5000151;28;20434;-78
2021/12/03 19:39:59;;;;;;;19.02;9.20;;;2.10;54.80;;;;;;5012064;28;20042;-78
2021/12/03 19:42:40;;;;;;;19.83;8.82;;;2.20;54.00;;;;;;5006415;28;20045;-81
2021/12/03 19:45:10;;;;;;;20.60;9.45;;;2.40;52.80;;;;;;5004967;28;20046;-78
2021/12/03 19:55:40;;;;;;;;;;;2.90;49.40;;;;;;4994923;28;20054;-78
2021/12/03 19:58:09;;;;;;;16.45;8.55;;;3.10;49.30;;;;;;5000750;28;19921;-78
2021/12/03 20:00:37;;;;;;;11.98;7.53;;;3.10;49.20;;;;;;5013274;28;20069;-79
2021/12/03 20:03:05;;;;;;;15.52;7.30;;;3.20;48.90;;;;;;4996940;28;20076;-80
2021/12/03 20:05:33;;;;;;;13.40;8.45;;;3.30;49.30;;;;;;5009271;28;20513;-78
2021/12/03 20:08:02;;;;;;;12.25;8.25;;;3.00;52.30;;;;;;5009947;28;20045;-81
2021/12/03 20:10:30;;;;;;;12.48;7.78;;;2.80;53.10;;;;;;5004397;28;20521;-79
2021/12/03 20:12:57;;;;;;;12.35;7.60;;;2.60;54.10;;;;;;5003248;28;20053;-81
2021/12/03 20:18:29;;;;;;;14.82;8.68;;;2.50;55.00;;;;;;5000222;28;20044;-80
2021/12/03 20:20:57;;;;;;;14.48;8.45;;;2.50;56.70;;;;;;5012131;28;20062;-81
2021/12/03 20:23:45;;;;;;;19.10;8.98;;;2.30;58.20;;;;;;4990900;28;20410;-79
2021/12/03 20:31:08;;;;;;;18.17;10.57;;;2.10;59.40;;;;;;5008507;28;20046;-80
2021/12/03 20:42:29;;;;;;;18.40;11.20;;;1.80;60.50;;;;;;5004629;28;20048;-79
2021/12/03 21:11:02;;;;;;;15.45;10.27;;;0.90;65.30;;;;;;5014881;28;20046;-81
2021/12/03 21:13:37;;;;;;;16.80;11.82;;;0.80;65.00;;;;;;5005330;28;20049;-79
2021/12/03 21:21:10;;;;;;;20.83;11.80;;;0.70;65.20;;;;;;5011346;28;20408;-80
2021/12/03 21:23:45;;;;;;;21.35;12.25;;;0.80;65.20;;;;;;5014040;28;20060;-78
2021/12/03 21:26:24;;;;;;;26.00;12.70;;;0.80;64.50;;;;;;5002574;28;20042;-79
2021/12/03 21:31:44;;;;;;;19.58;10.68;;;0.90;62.20;;;;;;5011527;28;20056;-81
2021/12/03 21:42:13;;;;;;;18.23;10.13;;;0.90;63.70;;;;;;5014939;28;20096;-79
2021/12/03 21:44:40;;;;;;;19.95;10.40;;;0.70;65.80;;;;;;5017005;28;20053;-79
2021/12/03 21:47:07;;;;;;;16.92;9.60;;;0.40;68.00;;;;;;5021603;28;20112;-79
2021/12/03 21:49:35;;;;;;;23.70;10.18;;;0.40;67.80;;;;;;5015244;28;20108;-81
2021/12/03 21:52:03;;;;;;;17.00;10.40;;;0.40;66.70;;;;;;5020887;28;20069;-80
2021/12/03 21:54:30;;;;;;;14.15;9.15;;;0.50;65.50;;;;;;5020512;28;20048;-79
2021/12/03 21:57:02;;;;;;;14.88;8.60;;;0.60;64.90;;;;;;5017908;28;20034;-78
2021/12/03 21:59:31;;;;;;;16.85;9.25;;;0.60;64.20;;;;;;5017173;28;20053;-79
2021/12/03 22:01:59;;;;;;;16.80;8.43;;;0.70;64.30;;;;;;5000134;28;20450;-78
2021/12/03 22:04:30;;;;;;;16.63;8.10;;;0.70;63.60;;;;;;5007694;28;20046;-81